Portada
METAR-TAF:

METAR-TAF

Aeroports :

Ilam, Iran

latitud: 33-35-09N, longitud: 046-24-20E, altitud: 1334 m

Observació

L'informe es va fer fa 25 minuts, a les 17:00 UTC
Vent 6 kt del Oest
Temperatura 31°C
Humitat 19%
Pressió 1007 hPa
Visibilitat 10 km o més
sense núvols per sota de 1500 mi sense presència de cumulonimbus.

METAR: OICI 191700Z 28006KT CAVOK 31/05 Q1007 A2975

Hora: 21:55 (17:25 UTC)

Pronòstic

L'informe es va fer fa 6 hores i 5 minuts, a les 11:20 UTC
Pronòstic vàlid del 19 a les 12 UTC al 20 a les 18 UTC
Vent 6 kt del Oest
Visibilitat: 7000 m
Temporalment
l' 19 a les 12 UTC al 19 a les 16 UTC
Vent 16 kt del Oest

TAF: OICI 191120Z 1912/2018 27006KT 7000 NSC TEMPO 1912/1916 27016KT

Observacions i pronòstics meteorològics de més de 4000 aeroports (METAR i TAF).

Les estacions disponibles són els punts grocs i vermells al mapa.

Posi el ratolí al punt desitjat per veure el nom de l'estació.

Feu clic per veure les observacions i els pronòstics meteorològics.

Per canviar el mapa: feu clic els botons verds amb una creu de color negre per apropar; al botó verd amb un guió per allunyar la imatge; o en les fletxes verdes per a mapes adjacents.


METAR-TAF: